Sunray — D5LD9 — position and weather

sailwx.info

Track history (hours):
 
Tides and Currents Weather Stations Pressure Air Temp Water Temp Dewpoint Dewpoint Depression Visibility Wind Speed Wind Dir Waves Ship Positions

Sunray

Last reported at 2018-Feb-20 11:23 UTC. Time now 2018-Feb-25 13:24 UTC.
Position N 01°14' E 103°34'.

Length 228 m; draft 8.6 m.

Type: Tanker. MMSI: 636017480.

Date/timePositionNaut miles runAvg speedWind from/ knotsBaromVisibWave heightAir tempDewpointWater temp
2018-Feb-20 11:23N 01°14' E 103°34'0 0.0
2018-Feb-20 10:59N 01°14' E 103°34'0 0.1
2018-Feb-20 10:29N 01°14' E 103°34'0 0.1
2018-Feb-20 09:59N 01°14' E 103°34'0 0.0
2018-Feb-20 09:29N 01°14' E 103°34'0 0.0
2018-Feb-20 08:59N 01°14' E 103°34'0 0.0
2018-Feb-20 08:29N 01°14' E 103°34'0 0.0
2018-Feb-20 07:59N 01°14' E 103°34'0 0.0
2018-Feb-20 07:20N 01°14' E 103°34'0 0.0
2018-Feb-20 06:53N 01°14' E 103°34'0 0.1
2018-Feb-20 06:26N 01°14' E 103°34'0 0.0
2018-Feb-20 05:56N 01°14' E 103°34'0 0.0
2018-Feb-20 05:29N 01°14' E 103°34'0 0.1
2018-Feb-20 04:56N 01°14' E 103°34'0 0.1
2018-Feb-20 04:29N 01°14' E 103°34'0 0.0
2018-Feb-20 03:59N 01°14' E 103°34'0 0.0
2018-Feb-20 03:29N 01°14' E 103°34'0 0.0
2018-Feb-20 02:59N 01°14' E 103°34'0 0.0
2018-Feb-20 02:29N 01°14' E 103°34'0 0.0
2018-Feb-20 01:59N 01°14' E 103°34'0 0.1
2018-Feb-20 01:29N 01°14' E 103°34'0 0.1
2018-Feb-20 00:59N 01°14' E 103°34'0 0.2
2018-Feb-20 00:26N 01°14' E 103°34'0 0.0
2018-Feb-19 23:59N 01°14' E 103°34'0 0.1
2018-Feb-19 23:02N 01°14' E 103°34'0 0.0
2018-Feb-19 22:44N 01°14' E 103°34'0 0.0
2018-Feb-19 22:29N 01°14' E 103°34'0 0.0
2018-Feb-19 21:59N 01°14' E 103°34'0 0.1
2018-Feb-19 21:17N 01°14' E 103°34'0 0.0
2018-Feb-19 20:59N 01°14' E 103°34'6 0.2
2018-Feb-18 18:01N 01°14' E 103°28'010.3
2018-Feb-18 17:59N 01°14' E 103°28'1010.6
2018-Feb-18 17:04N 01°11' E 103°38'111.0
2018-Feb-18 16:57N 01°11' E 103°39'710.0
2018-Feb-18 16:17N 01°09' E 103°45'312.6
2018-Feb-18 16:00N 01°11' E 103°48'3 5.2
2018-Feb-18 15:30N 01°13' E 103°49'0 0.1
2018-Feb-18 14:49N 01°13' E 103°49'0 0.2
2018-Feb-18 14:28N 01°13' E 103°49'0 0.0
2018-Feb-18 13:58N 01°13' E 103°49'0 0.1
2018-Feb-18 13:25N 01°13' E 103°49'0 0.1
2018-Feb-18 12:49N 01°13' E 103°49'0 0.1
2018-Feb-18 12:19N 01°13' E 103°49'0 0.0
2018-Feb-18 11:55N 01°13' E 103°49'0 0.0
2018-Feb-18 11:25N 01°13' E 103°49'0 0.1
2018-Feb-18 10:43N 01°13' E 103°49'0 0.1
2018-Feb-18 08:01N 01°13' E 103°50'0 0.2
2018-Feb-18 07:37N 01°13' E 103°50'0 0.1
2018-Feb-18 07:04N 01°13' E 103°49'0 0.0
2018-Feb-18 06:55N 01°13' E 103°49'0 0.0
2018-Feb-18 06:22N 01°13' E 103°49'0 0.0
2018-Feb-18 05:55N 01°13' E 103°49'0 0.1
2018-Feb-18 05:25N 01°13' E 103°49'0 0.1
2018-Feb-18 04:58N 01°13' E 103°49'0 0.1
2018-Feb-18 04:22N 01°13' E 103°50'0 0.3
2018-Feb-18 03:55N 01°13' E 103°49'0 0.2
2018-Feb-18 03:28N 01°13' E 103°49'0 0.2
2018-Feb-18 02:49N 01°13' E 103°49'0 0.5
2018-Feb-18 02:28N 01°13' E 103°49'0 0.4
2018-Feb-18 01:46N 01°13' E 103°50'0 0.5
2018-Feb-18 01:25N 01°13' E 103°49'0 0.1
2018-Feb-18 00:31N 01°13' E 103°49'0 0.4
2018-Feb-18 00:22N 01°13' E 103°49'0 0.1
2018-Feb-17 23:55N 01°13' E 103°49'0 0.0
2018-Feb-17 23:25N 01°13' E 103°49'0 0.1
2018-Feb-17 22:46N 01°13' E 103°49'0 0.1
2018-Feb-17 22:28N 01°13' E 103°49'0 0.0
2018-Feb-17 21:58N 01°13' E 103°49'0 0.0
2018-Feb-17 21:30N 01°13' E 103°49'0 0.8
2018-Feb-17 21:00N 01°13' E 103°50'3 5.4
2018-Feb-17 20:29N 01°13' E 103°52'5 9.5
2018-Feb-17 20:00N 01°15' E 103°57'4 7.2
2018-Feb-17 19:30N 01°16' E 104°00'  
Track history (hours):
 
Tides and Currents Weather Stations Pressure Air Temp Water Temp Dewpoint Dewpoint Depression Visibility Wind Speed Wind Dir Waves Ship Positions

Sunray

Last reported at 2018-Feb-20 11:23 UTC. Time now 2018-Feb-25 13:24 UTC.
Position N 01°14' E 103°34'.

Length 228 m; draft 8.6 m.

Type: Tanker. MMSI: 636017480.

Date/timePositionNaut miles runAvg speedWind from/ knotsBaromVisibWave heightAir tempDewpointWater temp
2018-Feb-20 11:23N 01°14' E 103°34'0 0.0
2018-Feb-20 10:59N 01°14' E 103°34'0 0.1
2018-Feb-20 10:29N 01°14' E 103°34'0 0.1
2018-Feb-20 09:59N 01°14' E 103°34'0 0.0
2018-Feb-20 09:29N 01°14' E 103°34'0 0.0
2018-Feb-20 08:59N 01°14' E 103°34'0 0.0
2018-Feb-20 08:29N 01°14' E 103°34'0 0.0
2018-Feb-20 07:59N 01°14' E 103°34'0 0.0
2018-Feb-20 07:20N 01°14' E 103°34'0 0.0
2018-Feb-20 06:53N 01°14' E 103°34'0 0.1
2018-Feb-20 06:26N 01°14' E 103°34'0 0.0
2018-Feb-20 05:56N 01°14' E 103°34'0 0.0
2018-Feb-20 05:29N 01°14' E 103°34'0 0.1
2018-Feb-20 04:56N 01°14' E 103°34'0 0.1
2018-Feb-20 04:29N 01°14' E 103°34'0 0.0
2018-Feb-20 03:59N 01°14' E 103°34'0 0.0
2018-Feb-20 03:29N 01°14' E 103°34'0 0.0
2018-Feb-20 02:59N 01°14' E 103°34'0 0.0
2018-Feb-20 02:29N 01°14' E 103°34'0 0.0
2018-Feb-20 01:59N 01°14' E 103°34'0 0.1
2018-Feb-20 01:29N 01°14' E 103°34'0 0.1
2018-Feb-20 00:59N 01°14' E 103°34'0 0.2
2018-Feb-20 00:26N 01°14' E 103°34'0 0.0
2018-Feb-19 23:59N 01°14' E 103°34'0 0.1
2018-Feb-19 23:02N 01°14' E 103°34'0 0.0
2018-Feb-19 22:44N 01°14' E 103°34'0 0.0
2018-Feb-19 22:29N 01°14' E 103°34'0 0.0
2018-Feb-19 21:59N 01°14' E 103°34'0 0.1
2018-Feb-19 21:17N 01°14' E 103°34'0 0.0
2018-Feb-19 20:59N 01°14' E 103°34'6 0.2
2018-Feb-18 18:01N 01°14' E 103°28'010.3
2018-Feb-18 17:59N 01°14' E 103°28'1010.6
2018-Feb-18 17:04N 01°11' E 103°38'111.0
2018-Feb-18 16:57N 01°11' E 103°39'710.0
2018-Feb-18 16:17N 01°09' E 103°45'312.6
2018-Feb-18 16:00N 01°11' E 103°48'3 5.2
2018-Feb-18 15:30N 01°13' E 103°49'0 0.1
2018-Feb-18 14:49N 01°13' E 103°49'0 0.2
2018-Feb-18 14:28N 01°13' E 103°49'0 0.0
2018-Feb-18 13:58N 01°13' E 103°49'0 0.1
2018-Feb-18 13:25N 01°13' E 103°49'0 0.1
2018-Feb-18 12:49N 01°13' E 103°49'0 0.1
2018-Feb-18 12:19N 01°13' E 103°49'0 0.0
2018-Feb-18 11:55N 01°13' E 103°49'0 0.0
2018-Feb-18 11:25N 01°13' E 103°49'0 0.1
2018-Feb-18 10:43N 01°13' E 103°49'0 0.1
2018-Feb-18 08:01N 01°13' E 103°50'0 0.2
2018-Feb-18 07:37N 01°13' E 103°50'0 0.1
2018-Feb-18 07:04N 01°13' E 103°49'0 0.0
2018-Feb-18 06:55N 01°13' E 103°49'0 0.0
2018-Feb-18 06:22N 01°13' E 103°49'0 0.0
2018-Feb-18 05:55N 01°13' E 103°49'0 0.1
2018-Feb-18 05:25N 01°13' E 103°49'0 0.1
2018-Feb-18 04:58N 01°13' E 103°49'0 0.1
2018-Feb-18 04:22N 01°13' E 103°50'0 0.3
2018-Feb-18 03:55N 01°13' E 103°49'0 0.2
2018-Feb-18 03:28N 01°13' E 103°49'0 0.2
2018-Feb-18 02:49N 01°13' E 103°49'0 0.5
2018-Feb-18 02:28N 01°13' E 103°49'0 0.4
2018-Feb-18 01:46N 01°13' E 103°50'0 0.5
2018-Feb-18 01:25N 01°13' E 103°49'0 0.1
2018-Feb-18 00:31N 01°13' E 103°49'0 0.4
2018-Feb-18 00:22N 01°13' E 103°49'0 0.1
2018-Feb-17 23:55N 01°13' E 103°49'0 0.0
2018-Feb-17 23:25N 01°13' E 103°49'0 0.1
2018-Feb-17 22:46N 01°13' E 103°49'0 0.1
2018-Feb-17 22:28N 01°13' E 103°49'0 0.0
2018-Feb-17 21:58N 01°13' E 103°49'0 0.0
2018-Feb-17 21:30N 01°13' E 103°49'0 0.8
2018-Feb-17 21:00N 01°13' E 103°50'3 5.4
2018-Feb-17 20:29N 01°13' E 103°52'5 9.5
2018-Feb-17 20:00N 01°15' E 103°57'4 7.2
2018-Feb-17 19:30N 01°16' E 104°00'  

Dump ship's entire track history